Lewisdale, Maryland
Current Conditions -  °F | °C
As of 8:20 PM on Saturday 25 Oct 2014 (Local Time) from KCGS Reporting Station
Clear Clear  
Wind Chill: 63°   Ceiling: Unl
Heat Index: 63°   Visibility: 10mi
Dew Point: 41°   Wind: 5mph
Humidity: 45%   Direction: 180°S
Pressure: 29.73"   Gusts: NA
Location:  38.9677°N, 76.9584°W
Report Text: KCGS 260020Z AUTO 18004KT 10SM CLR 17/05 A2973 RMK AO1
Loading
Personal Weather Stations






























Interactive Weather Map
Tropical Storm Tracking
New forecast layout! Learn more

10-Day Weather Forecast

Advertisements
Track Severe Weather on mobile